Time;durP1;ratioP1;P1;durP2;ratioP2;P2;SDS_P1;SDS_P2;PMS_P1;PMS_P2;Temp;Humidity;BMP_temperature;BMP_pressure;BME280_temperature;BME280_humidity;BME280_pressure;Samples;Min_cycle;Max_cycle;Signal;HPM_P1;HPM_P2
2023/04/11 00:00:51;;;;;;;7.47;0.95;;;11.70;72.30;;;;;;5006596;28;20428;-68
2023/04/11 00:03:18;;;;;;;3.45;1.67;;;11.70;72.70;;;;;;5009960;28;20032;-69
2023/04/11 00:05:45;;;;;;;2.22;0.60;;;11.70;72.90;;;;;;5007456;28;20026;-69
2023/04/11 00:08:10;;;;;;;4.25;1.48;;;11.70;73.10;;;;;;5010130;28;20113;-70
2023/04/11 00:10:36;;;;;;;5.55;1.27;;;11.60;73.50;;;;;;5008633;28;20507;-69
2023/04/11 00:13:02;;;;;;;3.75;1.58;;;11.60;73.90;;;;;;5012116;28;20144;-69
2023/04/11 00:15:28;;;;;;;4.03;1.60;;;11.70;74.30;;;;;;5006679;28;20034;-70
2023/04/11 00:17:54;;;;;;;7.13;1.00;;;11.70;74.60;;;;;;5011943;28;20370;-69
2023/04/11 00:20:20;;;;;;;3.42;1.63;;;11.70;75.00;;;;;;4992159;28;20030;-68
2023/04/11 00:22:46;;;;;;;5.38;2.22;;;11.70;75.20;;;;;;5012153;28;20117;-67
2023/04/11 00:25:12;;;;;;;7.97;2.05;;;11.70;75.60;;;;;;5010263;28;20117;-67
2023/04/11 00:27:38;;;;;;;5.38;1.95;;;11.80;75.90;;;;;;4989590;28;20061;-67
2023/04/11 00:30:07;;;;;;;5.88;1.83;;;11.80;76.60;;;;;;5010199;28;20100;-67
2023/04/11 00:32:32;;;;;;;6.35;2.42;;;11.80;77.00;;;;;;4993686;28;20033;-66
2023/04/11 00:34:58;;;;;;;5.25;1.88;;;11.80;78.20;;;;;;5000451;28;20033;-66
2023/04/11 00:37:24;;;;;;;6.68;2.75;;;11.80;78.10;;;;;;5000265;28;20041;-66
2023/04/11 00:39:51;;;;;;;9.00;3.10;;;11.90;78.00;;;;;;5008829;28;20491;-66
2023/04/11 00:42:18;;;;;;;6.72;2.08;;;11.90;78.40;;;;;;4997031;28;20021;-66
2023/04/11 00:44:44;;;;;;;5.00;1.60;;;11.90;78.20;;;;;;5010174;28;20401;-67
2023/04/11 00:47:10;;;;;;;8.55;1.48;;;12.00;78.00;;;;;;5007453;28;20085;-69
2023/04/11 00:49:36;;;;;;;6.45;2.42;;;12.00;78.30;;;;;;5007187;28;20060;-69
2023/04/11 00:52:03;;;;;;;7.95;2.28;;;12.00;77.80;;;;;;5009709;28;20033;-69
2023/04/11 00:54:30;;;;;;;10.00;2.42;;;12.00;77.90;;;;;;5009028;28;20061;-69
2023/04/11 00:57:00;;;;;;;7.78;3.50;;;12.00;78.10;;;;;;5000834;28;20033;-69
2023/04/11 00:59:30;;;;;;;11.32;2.67;;;11.90;78.20;;;;;;5007373;28;20065;-68
2023/04/11 01:01:57;;;;;;;5.95;2.63;;;11.80;78.50;;;;;;5009064;28;20097;-68
2023/04/11 01:04:23;;;;;;;9.20;2.45;;;11.80;78.60;;;;;;5001946;28;20026;-67
2023/04/11 01:06:53;;;;;;;13.27;2.28;;;11.80;78.50;;;;;;5010552;28;20076;-69
2023/04/11 01:09:26;;;;;;;9.50;2.90;;;11.80;78.60;;;;;;5008979;28;20032;-68
2023/04/11 01:11:53;;;;;;;3.58;1.63;;;11.80;78.80;;;;;;5009600;28;20467;-67
2023/04/11 01:14:19;;;;;;;6.97;2.63;;;11.70;78.80;;;;;;5007756;28;20084;-67
2023/04/11 01:16:47;;;;;;;11.32;3.22;;;11.70;78.90;;;;;;5007186;28;20132;-67
2023/04/11 01:19:20;;;;;;;7.53;1.67;;;11.70;79.00;;;;;;5007484;28;20488;-69
2023/04/11 01:21:48;;;;;;;4.05;2.00;;;11.60;79.20;;;;;;4975316;28;20038;-69
2023/04/11 01:24:14;;;;;;;11.98;2.67;;;11.60;79.40;;;;;;5010357;28;20034;-69
2023/04/11 01:26:40;;;;;;;8.35;2.55;;;11.50;79.60;;;;;;5009773;28;20026;-69
2023/04/11 01:29:06;;;;;;;3.15;1.42;;;11.50;80.20;;;;;;4990408;28;20124;-68
2023/04/11 01:31:31;;;;;;;4.47;2.92;;;11.50;79.60;;;;;;4989108;28;20048;-69
2023/04/11 01:33:58;;;;;;;10.23;2.38;;;11.50;79.50;;;;;;5009381;28;20564;-69
2023/04/11 01:36:25;;;;;;;7.85;2.30;;;11.50;79.60;;;;;;5009812;28;20379;-69
2023/04/11 01:38:51;;;;;;;9.90;2.63;;;11.50;79.60;;;;;;5005844;28;20034;-69
2023/04/11 01:41:19;;;;;;;8.60;2.30;;;11.40;79.70;;;;;;5007699;28;20384;-69
2023/04/11 01:43:46;;;;;;;12.40;3.45;;;11.50;79.90;;;;;;4997904;28;20089;-67
2023/04/11 01:46:12;;;;;;;8.57;3.80;;;11.40;79.90;;;;;;5004091;28;20129;-67
2023/04/11 01:48:38;;;;;;;9.48;2.55;;;11.40;80.00;;;;;;4993721;28;20038;-67
2023/04/11 01:51:04;;;;;;;9.45;2.13;;;11.40;80.00;;;;;;5005717;28;20056;-68
2023/04/11 01:53:30;;;;;;;4.75;2.63;;;11.30;80.00;;;;;;5008509;28;20113;-67
2023/04/11 01:55:56;;;;;;;7.53;2.58;;;11.30;79.90;;;;;;5004466;28;20437;-68
2023/04/11 01:58:21;;;;;;;9.38;2.42;;;11.30;79.90;;;;;;4979609;28;20493;-69
2023/04/11 02:00:47;;;;;;;4.10;2.58;;;11.30;80.00;;;;;;5007577;28;20109;-69
2023/04/11 02:03:13;;;;;;;11.90;2.58;;;11.20;80.10;;;;;;4997359;28;20029;-69
2023/04/11 02:05:39;;;;;;;10.73;2.47;;;11.20;80.10;;;;;;5008683;28;20112;-67
2023/04/11 02:08:04;;;;;;;6.35;2.80;;;11.20;80.10;;;;;;4985847;28;20088;-68
2023/04/11 02:10:30;;;;;;;13.10;2.55;;;11.20;80.10;;;;;;5008113;28;20065;-69
2023/04/11 02:12:56;;;;;;;6.88;1.70;;;11.10;80.10;;;;;;4992021;28;20037;-69
2023/04/11 02:15:22;;;;;;;5.85;1.92;;;11.10;80.20;;;;;;5007182;28;20437;-70
2023/04/11 02:17:48;;;;;;;10.68;1.95;;;11.10;80.40;;;;;;4993740;28;20049;-69
2023/04/11 02:20:14;;;;;;;8.45;2.50;;;11.10;80.50;;;;;;5004012;28;20064;-68
2023/04/11 02:22:40;;;;;;;8.27;2.38;;;11.00;80.40;;;;;;5003754;28;20037;-67
2023/04/11 02:25:06;;;;;;;5.35;2.45;;;11.00;80.40;;;;;;5006423;28;20588;-66
2023/04/11 02:27:33;;;;;;;15.45;2.53;;;11.00;80.40;;;;;;5003108;28;20144;-66
2023/04/11 02:29:59;;;;;;;10.13;2.40;;;11.00;80.40;;;;;;4996972;28;20037;-68
2023/04/11 02:32:26;;;;;;;6.82;2.17;;;11.00;80.50;;;;;;5008357;28;20034;-66
2023/04/11 02:34:52;;;;;;;7.82;2.22;;;10.90;80.50;;;;;;5003300;28;20023;-68
2023/04/11 02:37:18;;;;;;;9.43;2.95;;;11.00;80.50;;;;;;5006127;28;20374;-67
2023/04/11 02:39:44;;;;;;;3.60;1.70;;;11.00;80.50;;;;;;4984844;28;20018;-67
2023/04/11 02:42:12;;;;;;;5.22;2.20;;;11.00;80.50;;;;;;4996313;28;20030;-68
2023/04/11 02:44:37;;;;;;;3.80;1.45;;;11.00;80.30;;;;;;5006284;28;20080;-68
2023/04/11 02:47:03;;;;;;;3.60;1.40;;;11.00;80.20;;;;;;5007157;28;20058;-66
2023/04/11 02:49:29;;;;;;;5.93;1.58;;;11.10;80.00;;;;;;4993617;28;20404;-66
2023/04/11 02:51:55;;;;;;;8.02;2.35;;;11.10;79.70;;;;;;5006577;28;20061;-66
2023/04/11 02:54:20;;;;;;;4.03;1.05;;;11.10;79.30;;;;;;4996051;28;20088;-69
2023/04/11 02:56:46;;;;;;;4.57;1.52;;;11.10;79.10;;;;;;5008518;28;20030;-68
2023/04/11 02:59:12;;;;;;;9.55;2.10;;;11.10;79.00;;;;;;5008469;28;20018;-70
2023/04/11 03:01:37;;;;;;;4.43;1.20;;;11.00;77.40;;;;;;5009169;28;20477;-68
2023/04/11 03:04:03;;;;;;;11.00;2.00;;;11.00;77.00;;;;;;5006098;28;20034;-68
2023/04/11 03:06:29;;;;;;;4.13;1.95;;;11.00;77.00;;;;;;5009580;28;20037;-68
2023/04/11 03:08:54;;;;;;;4.50;1.17;;;11.00;76.80;;;;;;5008360;28;20124;-68
2023/04/11 03:11:20;;;;;;;2.85;1.02;;;10.90;77.10;;;;;;4987050;28;20389;-66
2023/04/11 03:13:46;;;;;;;4.93;1.95;;;11.00;76.60;;;;;;5005068;28;20076;-66
2023/04/11 03:16:14;;;;;;;6.45;1.58;;;11.00;76.60;;;;;;5009218;28;20306;-68
2023/04/11 03:18:40;;;;;;;7.32;1.27;;;11.00;76.60;;;;;;5008969;28;20121;-68
2023/04/11 03:21:10;;;;;;;4.22;1.60;;;11.00;76.40;;;;;;5009338;28;20114;-68
2023/04/11 03:23:37;;;;;;;7.18;1.83;;;11.10;76.50;;;;;;4988073;28;20543;-66
2023/04/11 03:26:04;;;;;;;4.75;1.30;;;11.10;76.50;;;;;;5008564;28;20037;-67
2023/04/11 03:28:30;;;;;;;1.63;0.82;;;11.10;76.50;;;;;;4993226;28;20037;-67
2023/04/11 03:30:56;;;;;;;4.60;1.48;;;11.00;76.70;;;;;;5005913;28;20492;-67
2023/04/11 03:33:21;;;;;;;6.50;1.15;;;11.10;77.00;;;;;;5010723;28;20029;-67
2023/04/11 03:35:47;;;;;;;8.77;2.35;;;11.00;77.10;;;;;;5007788;28;20523;-68
2023/04/11 03:38:13;;;;;;;6.30;1.23;;;11.00;77.40;;;;;;5015941;28;20030;-66
2023/04/11 03:40:38;;;;;;;6.15;1.38;;;11.00;77.60;;;;;;4995953;28;20582;-68
2023/04/11 03:43:04;;;;;;;6.88;1.42;;;11.00;77.80;;;;;;5006180;28;20022;-68
2023/04/11 03:45:30;;;;;;;10.82;2.40;;;11.00;78.20;;;;;;5012326;28;20029;-66
2023/04/11 03:47:56;;;;;;;10.13;1.77;;;10.90;78.80;;;;;;5012192;28;20038;-66
2023/04/11 03:50:22;;;;;;;6.13;1.67;;;10.90;78.80;;;;;;5012777;28;20098;-68
2023/04/11 03:52:47;;;;;;;5.22;1.65;;;10.80;78.90;;;;;;5008826;28;20030;-68
2023/04/11 03:55:13;;;;;;;4.65;1.45;;;10.80;79.10;;;;;;5011994;28;20080;-69
2023/04/11 03:57:39;;;;;;;5.10;1.65;;;10.70;79.30;;;;;;5002999;28;20477;-69
2023/04/11 04:00:05;;;;;;;6.47;1.80;;;10.70;79.20;;;;;;5008520;28;20026;-68
2023/04/11 04:02:31;;;;;;;7.45;2.20;;;10.70;79.00;;;;;;5010649;28;20022;-69
2023/04/11 04:05:00;;;;;;;4.78;1.80;;;10.70;78.90;;;;;;5012198;28;20037;-67
2023/04/11 04:07:27;;;;;;;2.17;1.17;;;10.70;78.60;;;;;;5012264;28;20022;-67
2023/04/11 04:09:53;;;;;;;4.75;1.73;;;10.80;78.50;;;;;;5011143;28;20033;-67
2023/04/11 04:12:22;;;;;;;4.45;0.95;;;10.80;78.20;;;;;;5009092;28;20556;-69
2023/04/11 04:14:48;;;;;;;5.43;1.17;;;10.80;77.60;;;;;;5010279;28;20030;-69
2023/04/11 04:17:15;;;;;;;1.35;1.00;;;10.70;77.30;;;;;;4991515;28;20056;-69
2023/04/11 04:19:41;;;;;;;2.15;0.90;;;10.70;77.20;;;;;;5006829;28;20110;-69
2023/04/11 04:22:16;;;;;;;3.85;1.10;;;10.70;77.10;;;;;;5007087;28;20034;-69
2023/04/11 04:24:44;;;;;;;2.08;0.55;;;10.70;76.80;;;;;;5009207;28;20029;-69
2023/04/11 04:27:12;;;;;;;6.15;1.30;;;10.80;76.70;;;;;;5004373;28;20476;-69
2023/04/11 04:29:45;;;;;;;3.40;0.98;;;10.70;76.20;;;;;;4993168;28;20112;-69
2023/04/11 04:32:21;;;;;;;5.50;1.05;;;10.70;75.70;;;;;;4999915;28;20112;-69
2023/04/11 04:34:49;;;;;;;2.22;1.15;;;10.70;75.80;;;;;;5007508;28;20029;-69
2023/04/11 04:37:22;;;;;;;1.58;0.80;;;10.70;75.60;;;;;;5003080;28;20113;-67
2023/04/11 04:39:56;;;;;;;3.03;0.73;;;10.70;75.60;;;;;;5005472;28;20486;-67
2023/04/11 04:42:26;;;;;;;3.30;1.20;;;10.70;75.60;;;;;;5009959;28;20506;-67
2023/04/11 04:44:53;;;;;;;4.88;1.17;;;10.70;75.50;;;;;;5009646;28;20030;-67
2023/04/11 04:47:22;;;;;;;4.20;1.13;;;10.80;75.40;;;;;;4977511;28;20057;-66
2023/04/11 04:49:53;;;;;;;2.92;0.98;;;10.70;75.30;;;;;;5010553;28;20022;-69
2023/04/11 04:52:18;;;;;;;5.03;1.35;;;10.70;75.30;;;;;;5008049;28;20049;-66
2023/04/11 04:54:44;;;;;;;2.25;0.88;;;10.70;75.40;;;;;;4992500;28;20480;-66
2023/04/11 04:57:10;;;;;;;9.40;0.85;;;10.70;75.40;;;;;;5009253;28;20117;-67
2023/04/11 04:59:36;;;;;;;3.75;1.13;;;10.70;75.40;;;;;;4992972;28;20065;-67
2023/04/11 05:02:01;;;;;;;3.78;1.00;;;10.70;75.20;;;;;;5008874;28;20035;-69
2023/04/11 05:04:28;;;;;;;3.15;0.90;;;10.80;75.00;;;;;;5008564;28;20037;-69
2023/04/11 05:06:54;;;;;;;7.45;1.95;;;10.70;74.90;;;;;;5010052;28;21132;-69
2023/04/11 05:09:20;;;;;;;1.02;0.80;;;10.80;74.90;;;;;;5007160;28;20057;-69
2023/04/11 05:11:45;;;;;;;1.80;1.13;;;10.70;74.60;;;;;;5004847;28;20069;-67
2023/04/11 05:14:11;;;;;;;3.95;0.93;;;10.70;74.70;;;;;;5009273;28;20038;-67
2023/04/11 05:16:40;;;;;;;0.73;0.73;;;10.70;74.40;;;;;;5010007;28;20121;-66
2023/04/11 05:19:05;;;;;;;3.33;0.98;;;10.70;74.60;;;;;;5007219;28;20052;-68
2023/04/11 05:21:31;;;;;;;1.85;0.90;;;10.60;74.40;;;;;;5006397;28;20049;-68
2023/04/11 05:23:57;;;;;;;5.75;1.27;;;10.60;74.40;;;;;;5009803;28;20358;-66
2023/04/11 05:26:22;;;;;;;4.95;1.20;;;10.60;74.20;;;;;;4997236;28;20040;-66
2023/04/11 05:28:48;;;;;;;4.93;1.73;;;10.70;74.00;;;;;;5005671;28;20117;-68
2023/04/11 05:31:15;;;;;;;4.57;0.82;;;10.70;73.90;;;;;;5009802;28;20485;-67
2023/04/11 05:33:42;;;;;;;7.13;1.23;;;10.70;73.50;;;;;;5008610;28;20109;-67
2023/04/11 05:36:12;;;;;;;6.03;0.82;;;10.60;73.40;;;;;;5003044;28;20497;-67
2023/04/11 05:38:39;;;;;;;1.30;0.70;;;10.60;73.50;;;;;;4992174;28;20121;-68
2023/04/11 05:41:06;;;;;;;2.33;0.82;;;10.50;73.50;;;;;;5007354;28;20026;-65
2023/04/11 05:43:32;;;;;;;2.42;0.50;;;10.50;73.20;;;;;;5007589;28;20511;-67
2023/04/11 05:45:57;;;;;;;2.33;0.50;;;10.50;73.10;;;;;;5009706;28;20037;-66
2023/04/11 05:48:23;;;;;;;2.03;0.90;;;10.50;73.00;;;;;;5008403;28;20121;-66
2023/04/11 05:50:49;;;;;;;1.98;0.70;;;10.50;72.60;;;;;;5009129;28;20060;-66
2023/04/11 05:53:15;;;;;;;1.10;0.85;;;10.50;72.40;;;;;;5008570;28;20045;-66
2023/04/11 05:55:41;;;;;;;1.17;0.77;;;10.50;71.90;;;;;;5006222;28;20543;-66
2023/04/11 05:58:07;;;;;;;7.05;1.15;;;10.50;71.70;;;;;;5008026;28;20088;-67
2023/04/11 06:00:33;;;;;;;2.30;0.80;;;10.40;71.30;;;;;;5005742;28;20074;-66
2023/04/11 06:03:00;;;;;;;0.93;0.70;;;10.40;71.40;;;;;;5006301;28;20508;-66
2023/04/11 06:05:30;;;;;;;0.75;0.65;;;10.50;71.30;;;;;;5008742;28;20502;-67
2023/04/11 06:07:58;;;;;;;3.97;1.00;;;10.50;71.30;;;;;;5008522;28;20061;-66
2023/04/11 06:10:24;;;;;;;1.35;0.77;;;10.50;71.10;;;;;;5008260;28;20037;-67
2023/04/11 06:12:49;;;;;;;1.50;0.80;;;10.60;71.20;;;;;;5003882;28;20038;-66
2023/04/11 06:15:16;;;;;;;1.00;0.60;;;10.60;70.90;;;;;;5008160;28;20037;-68
2023/04/11 06:17:42;;;;;;;0.80;0.60;;;10.70;70.80;;;;;;5006011;28;20102;-68
2023/04/11 06:20:09;;;;;;;1.08;0.30;;;10.70;70.70;;;;;;4992362;28;20061;-69
2023/04/11 06:22:35;;;;;;;4.38;0.65;;;10.70;70.30;;;;;;5000535;28;20072;-68
2023/04/11 06:25:00;;;;;;;4.65;0.88;;;10.70;70.70;;;;;;5011602;28;20384;-68
2023/04/11 06:27:26;;;;;;;1.02;0.85;;;10.80;70.60;;;;;;5007079;28;20053;-68
2023/04/11 06:29:52;;;;;;;0.90;0.73;;;10.80;70.40;;;;;;5003633;28;20022;-68
2023/04/11 06:32:18;;;;;;;6.97;1.00;;;10.80;70.10;;;;;;5006241;28;20038;-68
2023/04/11 06:34:44;;;;;;;0.82;0.50;;;10.90;70.30;;;;;;5000384;28;20036;-68
2023/04/11 06:37:10;;;;;;;1.13;0.80;;;10.90;70.10;;;;;;4985074;28;20029;-68
2023/04/11 06:39:35;;;;;;;0.70;0.63;;;11.00;70.10;;;;;;5008553;28;20026;-68
2023/04/11 06:42:02;;;;;;;4.25;0.98;;;11.00;69.60;;;;;;4988654;28;20116;-67
2023/04/11 06:44:28;;;;;;;1.80;0.50;;;11.00;69.70;;;;;;5004763;28;20034;-66
2023/04/11 06:46:54;;;;;;;4.53;0.95;;;11.10;69.70;;;;;;5002444;28;20054;-66
2023/04/11 06:49:20;;;;;;;1.50;0.68;;;11.10;69.50;;;;;;4988238;28;20097;-68
2023/04/11 06:51:48;;;;;;;2.83;1.00;;;11.10;68.60;;;;;;5003613;28;20100;-66
2023/04/11 06:54:13;;;;;;;13.65;1.38;;;11.10;68.50;;;;;;4994231;28;20034;-65
2023/04/11 06:56:39;;;;;;;2.78;1.27;;;11.10;68.60;;;;;;5004936;28;20026;-66
2023/04/11 06:59:05;;;;;;;5.25;0.95;;;11.10;68.70;;;;;;5002851;28;20077;-66
2023/04/11 07:01:34;;;;;;;6.00;1.17;;;11.20;68.40;;;;;;5009790;28;20034;-66
2023/04/11 07:04:06;;;;;;;3.35;0.90;;;11.20;68.30;;;;;;5006899;28;20049;-66
2023/04/11 07:06:34;;;;;;;5.32;1.38;;;11.30;68.30;;;;;;4992904;28;20037;-67
2023/04/11 07:09:00;;;;;;;2.83;0.95;;;11.40;68.00;;;;;;5010162;28;20076;-67
2023/04/11 07:11:27;;;;;;;2.00;1.27;;;11.40;67.60;;;;;;5010011;28;20080;-68
2023/04/11 07:13:54;;;;;;;0.20;0.20;;;11.50;67.60;;;;;;5011838;28;20029;-67
2023/04/11 07:16:20;;;;;;;1.30;0.73;;;11.50;67.40;;;;;;5012578;28;20466;-68
2023/04/11 07:18:47;;;;;;;0.57;0.50;;;11.50;66.90;;;;;;5007586;28;20038;-68
2023/04/11 07:21:13;;;;;;;2.33;0.95;;;11.50;66.90;;;;;;5013487;28;20161;-67
2023/04/11 07:23:39;;;;;;;1.75;0.80;;;11.50;67.20;;;;;;4979125;28;20069;-66
2023/04/11 07:26:07;;;;;;;4.18;1.25;;;11.70;67.40;;;;;;5010607;28;20497;-68
2023/04/11 07:28:36;;;;;;;1.77;0.63;;;11.70;67.00;;;;;;5006467;28;20476;-66
2023/04/11 07:31:03;;;;;;;8.32;1.42;;;11.80;66.80;;;;;;5010944;28;20026;-67
2023/04/11 07:33:28;;;;;;;1.67;0.98;;;11.90;66.70;;;;;;5011059;28;20037;-66
2023/04/11 07:35:54;;;;;;;2.88;0.93;;;11.90;66.10;;;;;;5007363;28;20496;-67
2023/04/11 07:38:28;;;;;;;2.55;1.23;;;11.90;65.40;;;;;;4987634;28;20056;-68
2023/04/11 07:40:58;;;;;;;1.10;0.77;;;12.00;65.70;;;;;;5006804;28;20480;-67
2023/04/11 07:43:26;;;;;;;2.38;0.65;;;12.00;65.90;;;;;;5008130;28;20034;-67
2023/04/11 07:45:52;;;;;;;3.05;0.80;;;11.90;66.00;;;;;;4991546;28;20041;-67
2023/04/11 07:48:20;;;;;;;7.00;0.70;;;11.90;65.30;;;;;;4994531;28;20045;-67
2023/04/11 07:50:46;;;;;;;1.08;0.65;;;11.80;64.70;;;;;;4999977;28;20044;-67
2023/04/11 07:53:12;;;;;;;1.52;0.88;;;11.70;65.10;;;;;;5007239;28;20033;-67
2023/04/11 07:55:38;;;;;;;5.55;0.90;;;11.70;65.20;;;;;;5009666;28;20120;-67
2023/04/11 07:58:04;;;;;;;3.38;0.88;;;11.80;65.00;;;;;;5000881;28;20422;-68
2023/04/11 08:00:32;;;;;;;4.68;1.02;;;11.90;64.40;;;;;;5008648;28;20029;-67
2023/04/11 08:03:01;;;;;;;5.57;0.93;;;12.00;64.70;;;;;;4989126;28;20024;-67
2023/04/11 08:05:29;;;;;;;0.50;0.50;;;12.30;64.70;;;;;;5011222;28;20105;-68
2023/04/11 08:07:55;;;;;;;3.80;0.68;;;12.30;62.70;;;;;;5011202;28;20041;-68
2023/04/11 08:10:21;;;;;;;3.33;0.70;;;12.40;62.10;;;;;;4992072;28;20373;-67
2023/04/11 08:12:47;;;;;;;1.77;0.63;;;12.40;62.10;;;;;;5006344;28;20084;-67
2023/04/11 08:15:13;;;;;;;2.05;0.50;;;12.50;62.40;;;;;;5010132;28;20026;-68
2023/04/11 08:17:39;;;;;;;2.42;0.88;;;12.60;60.30;;;;;;5007176;28;20033;-67
2023/04/11 08:20:08;;;;;;;0.88;0.80;;;12.60;60.00;;;;;;5003129;28;20417;-67
2023/04/11 08:22:34;;;;;;;1.10;0.88;;;12.60;60.20;;;;;;5011970;28;20028;-68
2023/04/11 08:24:59;;;;;;;5.13;0.95;;;12.70;60.60;;;;;;5008775;28;20400;-69
2023/04/11 08:27:25;;;;;;;1.98;0.90;;;12.80;60.40;;;;;;4993497;28;20030;-67
2023/04/11 08:29:51;;;;;;;0.95;0.70;;;12.80;59.40;;;;;;4997327;28;20339;-68
2023/04/11 08:32:16;;;;;;;1.77;0.77;;;12.80;57.30;;;;;;5003948;28;20384;-66
2023/04/11 08:34:42;;;;;;;2.85;0.93;;;12.70;57.10;;;;;;4984987;28;20076;-67
2023/04/11 08:37:08;;;;;;;0.77;0.60;;;12.70;56.30;;;;;;4976708;28;20025;-67
2023/04/11 08:39:34;;;;;;;2.47;0.70;;;12.60;56.80;;;;;;5011756;28;20034;-66
2023/04/11 08:42:00;;;;;;;1.58;0.82;;;12.60;57.10;;;;;;5004415;28;20030;-67
2023/04/11 08:44:26;;;;;;;0.77;0.77;;;12.80;57.40;;;;;;5009689;28;20018;-67
2023/04/11 08:46:51;;;;;;;11.15;1.23;;;12.90;56.80;;;;;;5009221;28;20081;-68
2023/04/11 08:49:17;;;;;;;2.03;0.80;;;13.00;57.00;;;;;;5008876;28;20045;-68
2023/04/11 08:51:43;;;;;;;1.77;1.10;;;13.10;57.20;;;;;;5009040;28;20018;-68
2023/04/11 08:54:10;;;;;;;3.45;1.02;;;13.30;57.50;;;;;;5004157;28;20018;-67
2023/04/11 08:56:37;;;;;;;5.55;1.17;;;13.40;57.00;;;;;;5002706;28;20040;-67
2023/04/11 08:59:02;;;;;;;6.85;0.95;;;13.50;56.30;;;;;;5006877;28;20025;-67
2023/04/11 09:01:33;;;;;;;1.05;0.95;;;13.60;55.70;;;;;;5007871;28;20049;-66
2023/04/11 09:04:01;;;;;;;1.38;0.95;;;13.60;55.90;;;;;;5004071;28;20545;-66
2023/04/11 09:06:31;;;;;;;1.95;0.90;;;13.60;55.70;;;;;;5007650;28;20032;-71
2023/04/11 09:09:06;;;;;;;2.88;0.82;;;13.60;55.90;;;;;;5006945;28;20061;-66
2023/04/11 09:11:52;;;;;;;0.73;0.60;;;13.70;55.90;;;;;;4992375;28;20452;-66
2023/04/11 09:14:22;;;;;;;2.70;0.95;;;13.70;53.90;;;;;;5006248;28;20473;-67
2023/04/11 09:16:59;;;;;;;1.80;0.50;;;13.50;53.50;;;;;;5008717;28;20026;-67
2023/04/11 09:19:27;;;;;;;3.70;1.02;;;13.40;54.10;;;;;;4997532;28;20037;-67
2023/04/11 09:21:55;;;;;;;1.30;0.60;;;13.40;54.20;;;;;;4990323;28;20015;-68
2023/04/11 09:24:21;;;;;;;1.67;0.60;;;13.30;54.30;;;;;;5010425;28;20479;-68
2023/04/11 09:26:47;;;;;;;2.70;1.00;;;13.30;54.40;;;;;;5008942;28;20377;-68
2023/04/11 09:29:47;;;;;;;2.33;1.27;;;13.30;54.90;;;;;;5010035;28;20041;-66
2023/04/11 09:32:29;;;;;;;5.85;1.10;;;13.40;55.00;;;;;;4953596;28;20033;-67
2023/04/11 09:35:14;;;;;;;3.35;1.42;;;13.50;55.00;;;;;;4985880;28;20092;-68
2023/04/11 09:37:56;;;;;;;3.28;0.70;;;13.70;54.70;;;;;;5009216;28;20468;-66
2023/04/11 09:40:24;;;;;;;8.27;1.10;;;13.90;54.50;;;;;;4990650;28;20029;-67
2023/04/11 09:42:57;;;;;;;2.95;1.00;;;14.00;55.00;;;;;;5007405;28;20021;-66
2023/04/11 09:45:23;;;;;;;7.57;1.00;;;14.00;54.90;;;;;;5005862;28;20864;-66
2023/04/11 09:47:51;;;;;;;1.92;0.60;;;14.10;53.70;;;;;;5007366;28;20125;-66
2023/04/11 09:50:18;;;;;;;1.25;0.68;;;14.20;54.20;;;;;;5008133;28;20092;-67
2023/04/11 09:52:44;;;;;;;2.20;0.68;;;14.30;54.00;;;;;;4972237;28;20038;-66
2023/04/11 09:55:16;;;;;;;1.48;0.60;;;14.50;53.60;;;;;;5014445;28;20036;-67
2023/04/11 09:57:46;;;;;;;3.38;0.88;;;14.60;53.10;;;;;;5013994;28;20025;-67
2023/04/11 10:00:14;;;;;;;1.45;0.68;;;14.60;51.50;;;;;;5011319;28;20025;-67
2023/04/11 10:02:40;;;;;;;6.68;1.20;;;14.50;52.10;;;;;;5004788;28;20097;-66
2023/04/11 10:05:07;;;;;;;3.13;1.42;;;14.50;52.70;;;;;;5009554;28;20022;-66
2023/04/11 10:07:46;;;;;;;3.65;1.02;;;14.40;52.40;;;;;;5010237;28;20037;-66
2023/04/11 10:10:19;;;;;;;4.15;1.15;;;14.50;51.10;;;;;;5006330;28;20141;-67
2023/04/11 10:12:45;;;;;;;3.92;0.70;;;14.60;49.40;;;;;;5005177;28;20034;-67
2023/04/11 10:15:12;;;;;;;1.35;0.30;;;14.60;49.20;;;;;;5006134;28;20032;-66
2023/04/11 10:17:39;;;;;;;1.88;0.70;;;14.60;49.00;;;;;;5009875;28;20030;-67
2023/04/11 10:20:41;;;;;;;0.75;0.40;;;14.50;48.80;;;;;;5009545;28;20061;-66
2023/04/11 10:23:07;;;;;;;1.10;0.97;;;14.60;48.00;;;;;;5002638;28;20022;-66
2023/04/11 10:25:59;;;;;;;5.00;0.77;;;14.50;48.70;;;;;;5003386;28;20327;-66
2023/04/11 10:28:37;;;;;;;2.58;0.90;;;14.50;49.00;;;;;;5005645;28;20022;-66
2023/04/11 10:31:16;;;;;;;8.25;0.82;;;14.20;48.50;;;;;;5009710;28;20575;-66
2023/04/11 10:34:12;;;;;;;0.73;0.52;;;13.90;48.20;;;;;;4998592;28;20025;-66
2023/04/11 10:37:01;;;;;;;0.55;0.55;;;13.80;49.80;;;;;;5007453;28;20038;-65
2023/04/11 10:40:04;;;;;;;0.70;0.70;;;13.80;49.90;;;;;;5003184;28;20057;-67
2023/04/11 10:42:32;;;;;;;1.98;0.73;;;13.60;47.50;;;;;;4930879;29;20042;-67
2023/04/11 10:45:20;;;;;;;1.80;1.05;;;13.50;48.20;;;;;;4993675;28;20126;-69
2023/04/11 10:47:55;;;;;;;1.75;0.70;;;13.50;48.70;;;;;;5009332;28;20046;-68
2023/04/11 10:50:29;;;;;;;1.20;0.77;;;13.60;48.20;;;;;;5006295;28;20018;-69
2023/04/11 10:53:05;;;;;;;0.70;0.40;;;13.90;48.50;;;;;;5007058;28;20029;-68
2023/04/11 10:55:43;;;;;;;1.15;0.47;;;14.20;47.40;;;;;;5004582;28;20025;-67
2023/04/11 10:58:12;;;;;;;0.20;0.20;;;14.30;46.60;;;;;;4981490;28;20022;-67
2023/04/11 11:03:17;;;;;;;2.35;0.68;;;14.60;44.70;;;;;;5000202;28;20085;-65
2023/04/11 11:05:44;;;;;;;1.63;0.40;;;14.60;44.10;;;;;;5000197;28;20091;-65
2023/04/11 11:08:10;;;;;;;0.52;0.32;;;14.70;43.80;;;;;;5004599;28;20034;-66
2023/04/11 11:10:45;;;;;;;1.88;0.73;;;14.70;44.10;;;;;;5005460;28;20041;-66
2023/04/11 11:13:15;;;;;;;0.47;0.38;;;14.90;44.30;;;;;;5004847;28;20139;-66
2023/04/11 11:15:47;;;;;;;0.82;0.40;;;15.10;44.40;;;;;;5007187;28;20029;-66
2023/04/11 11:18:14;;;;;;;1.27;0.65;;;15.20;43.20;;;;;;5003796;28;20033;-68
2023/04/11 11:20:40;;;;;;;2.50;0.40;;;15.30;42.40;;;;;;5003758;28;20161;-69
2023/04/11 11:23:09;;;;;;;0.63;0.38;;;15.20;42.60;;;;;;4998351;28;20034;-66
2023/04/11 11:25:35;;;;;;;1.27;0.73;;;15.10;42.60;;;;;;5005334;28;20168;-68
2023/04/11 11:28:02;;;;;;;1.55;0.45;;;15.00;44.10;;;;;;5006364;28;20068;-68
2023/04/11 11:30:28;;;;;;;1.35;0.50;;;15.30;44.40;;;;;;5004151;28;20584;-66
2023/04/11 11:32:55;;;;;;;4.35;0.65;;;15.40;43.40;;;;;;5007926;28;20030;-66
2023/04/11 11:35:21;;;;;;;2.22;0.73;;;15.30;44.00;;;;;;5005372;28;20066;-66
2023/04/11 11:37:56;;;;;;;3.60;0.85;;;15.40;43.30;;;;;;5005860;28;20043;-68
2023/04/11 11:40:22;;;;;;;2.40;0.52;;;15.60;42.50;;;;;;4975818;28;20061;-67
2023/04/11 11:42:51;;;;;;;2.85;0.60;;;15.60;43.50;;;;;;5004720;28;20515;-66
2023/04/11 11:45:21;;;;;;;0.73;0.50;;;15.70;43.70;;;;;;5008235;28;20037;-66
2023/04/11 11:47:48;;;;;;;5.38;0.60;;;15.60;43.50;;;;;;4990833;28;20046;-65
2023/04/11 11:50:25;;;;;;;0.82;0.40;;;15.40;44.10;;;;;;5009089;28;20026;-68
2023/04/11 11:52:51;;;;;;;3.38;0.60;;;15.40;44.30;;;;;;5006689;28;20029;-67
2023/04/11 11:55:17;;;;;;;1.20;0.57;;;15.50;44.30;;;;;;5011171;28;20108;-68
2023/04/11 11:57:45;;;;;;;0.50;0.50;;;15.80;44.60;;;;;;5011344;28;20068;-67
2023/04/11 12:00:12;;;;;;;2.38;0.52;;;15.80;44.90;;;;;;5012318;28;20376;-68
2023/04/11 12:02:40;;;;;;;1.48;0.88;;;15.50;43.90;;;;;;5011846;28;20076;-68
2023/04/11 12:05:09;;;;;;;2.05;0.60;;;15.20;44.30;;;;;;5010842;28;20026;-68
2023/04/11 12:07:38;;;;;;;5.63;1.23;;;15.00;44.70;;;;;;5011785;28;20037;-67
2023/04/11 12:10:12;;;;;;;0.60;0.60;;;15.10;45.20;;;;;;5012081;28;20026;-68
2023/04/11 12:12:40;;;;;;;1.35;0.77;;;15.40;45.10;;;;;;5003020;28;20034;-69
2023/04/11 12:15:15;;;;;;;1.00;0.32;;;15.80;44.50;;;;;;5006159;28;20033;-67
2023/04/11 12:17:40;;;;;;;9.43;0.85;;;16.00;43.60;;;;;;5005917;28;20463;-67
2023/04/11 12:20:07;;;;;;;1.27;0.80;;;16.20;44.00;;;;;;5010297;28;20049;-67
2023/04/11 12:22:36;;;;;;;0.43;0.40;;;16.30;42.70;;;;;;5012260;28;20434;-67
2023/04/11 12:25:10;;;;;;;1.17;0.63;;;16.50;42.70;;;;;;5010854;28;20101;-67
2023/04/11 12:27:37;;;;;;;1.35;0.63;;;16.70;42.80;;;;;;5004452;28;20113;-68
2023/04/11 12:30:03;;;;;;;1.40;0.60;;;17.00;41.90;;;;;;5009731;28;20036;-67
2023/04/11 12:32:31;;;;;;;1.95;0.63;;;16.90;41.20;;;;;;4989556;28;20040;-67
2023/04/11 12:34:57;;;;;;;1.70;0.88;;;16.80;40.90;;;;;;5010957;28;20026;-65
2023/04/11 12:37:23;;;;;;;0.82;0.75;;;16.80;40.50;;;;;;5006363;28;20033;-65
2023/04/11 12:39:48;;;;;;;6.20;0.70;;;16.80;40.30;;;;;;5011642;28;20085;-66
2023/04/11 12:42:14;;;;;;;2.05;0.73;;;16.70;40.00;;;;;;5007955;28;20046;-66
2023/04/11 12:44:41;;;;;;;1.23;0.47;;;16.80;40.20;;;;;;5011027;28;20064;-67
2023/04/11 12:47:07;;;;;;;5.15;1.10;;;16.90;39.80;;;;;;5010614;28;20442;-67
2023/04/11 12:49:32;;;;;;;1.75;0.75;;;17.00;39.90;;;;;;5011336;28;20026;-67
2023/04/11 12:51:58;;;;;;;0.52;0.50;;;17.00;39.60;;;;;;5004502;28;20026;-68